createdAt,value
2019-01-03T00:00:03.543Z,0.00
2019-01-03T00:01:03.567Z,0.00
2019-01-03T00:02:03.599Z,0.00
2019-01-03T00:03:03.609Z,0.00
2019-01-03T00:04:03.630Z,0.00
2019-01-03T00:05:03.654Z,0.00
2019-01-03T00:06:03.674Z,0.00
2019-01-03T00:07:03.696Z,0.00
2019-01-03T00:08:03.717Z,0.00
2019-01-03T00:09:03.741Z,0.00
2019-01-03T00:10:03.761Z,0.00
2019-01-03T00:11:03.781Z,0.00
2019-01-03T00:12:03.803Z,0.00
2019-01-03T00:13:03.825Z,0.00
2019-01-03T00:14:03.846Z,0.00
2019-01-03T00:15:03.866Z,0.00
2019-01-03T00:16:03.891Z,0.00
2019-01-03T00:17:03.910Z,0.00
2019-01-03T00:18:03.934Z,0.00
2019-01-03T00:19:04.244Z,0.00
2019-01-03T00:20:03.974Z,0.00
2019-01-03T00:21:03.996Z,0.00
2019-01-03T00:22:04.019Z,0.00
2019-01-03T00:23:04.042Z,0.00
2019-01-03T00:24:04.061Z,0.00
2019-01-03T00:25:04.083Z,0.00
2019-01-03T00:26:04.105Z,0.00
2019-01-03T00:27:04.126Z,0.00
2019-01-03T00:28:04.163Z,0.00
2019-01-03T00:29:04.171Z,0.00
2019-01-03T00:30:04.190Z,0.00
2019-01-03T00:31:04.213Z,0.00
2019-01-03T00:32:04.232Z,0.00
2019-01-03T00:33:04.255Z,0.00
2019-01-03T00:34:04.276Z,0.00
2019-01-03T00:35:04.296Z,0.00
2019-01-03T00:36:04.319Z,0.00
2019-01-03T00:37:04.341Z,0.00
2019-01-03T00:38:04.361Z,0.00
2019-01-03T00:39:04.383Z,0.00
2019-01-03T00:40:04.403Z,0.00
2019-01-03T00:41:04.424Z,0.00
2019-01-03T00:42:04.447Z,0.00
2019-01-03T00:43:04.467Z,0.00
2019-01-03T00:44:04.491Z,0.00
2019-01-03T00:45:04.511Z,0.00
2019-01-03T00:46:04.534Z,0.00
2019-01-03T00:47:04.554Z,0.00
2019-01-03T00:48:04.576Z,0.00
2019-01-03T00:49:04.598Z,0.00
2019-01-03T00:50:04.619Z,0.00
2019-01-03T00:51:04.642Z,0.00
2019-01-03T00:52:04.663Z,0.00
2019-01-03T00:53:04.684Z,0.00
2019-01-03T00:54:04.707Z,0.00
2019-01-03T00:55:04.726Z,0.00
2019-01-03T00:56:04.748Z,0.00
2019-01-03T00:57:04.771Z,0.00
2019-01-03T00:58:04.793Z,0.00
2019-01-03T00:59:04.813Z,0.00
2019-01-03T01:00:05.349Z,0.00
2019-01-03T01:01:04.857Z,0.00
2019-01-03T01:02:04.881Z,0.00
2019-01-03T01:03:04.901Z,0.00
2019-01-03T01:04:04.924Z,0.00
2019-01-03T01:05:04.944Z,0.00
2019-01-03T01:06:04.966Z,0.00
2019-01-03T01:07:04.988Z,0.00
2019-01-03T01:08:05.009Z,0.00
2019-01-03T01:09:05.033Z,0.00
2019-01-03T01:10:05.054Z,0.00
2019-01-03T01:11:05.075Z,0.00
2019-01-03T01:12:05.096Z,0.00
2019-01-03T01:13:05.121Z,0.00
2019-01-03T01:14:05.140Z,0.00
2019-01-03T01:15:05.162Z,0.00
2019-01-03T01:16:05.184Z,0.00
2019-01-03T01:17:05.207Z,0.00
2019-01-03T01:18:05.228Z,0.00
2019-01-03T01:19:05.249Z,0.00
2019-01-03T01:20:05.271Z,0.00
2019-01-03T01:21:05.292Z,0.00
2019-01-03T01:22:05.314Z,0.00
2019-01-03T01:23:05.336Z,0.00
2019-01-03T01:24:05.359Z,0.00
2019-01-03T01:25:05.384Z,0.00
2019-01-03T01:26:05.403Z,0.00
2019-01-03T01:27:05.424Z,0.00
2019-01-03T01:28:05.448Z,0.00
2019-01-03T01:29:05.475Z,0.00
2019-01-03T01:30:05.492Z,0.00
2019-01-03T01:31:05.511Z,0.00
2019-01-03T01:32:05.536Z,0.00
2019-01-03T01:33:05.557Z,0.00
2019-01-03T01:34:05.578Z,0.00
2019-01-03T01:35:05.598Z,0.00
2019-01-03T01:36:05.620Z,0.00
2019-01-03T01:37:05.643Z,0.00
2019-01-03T01:38:05.665Z,0.00
2019-01-03T01:39:05.686Z,0.00
2019-01-03T01:40:05.711Z,0.00
2019-01-03T01:41:05.735Z,0.00
2019-01-03T01:42:05.753Z,0.00
2019-01-03T01:43:05.774Z,0.00
2019-01-03T01:44:05.795Z,0.00
2019-01-03T01:45:05.818Z,0.00
2019-01-03T01:46:05.967Z,0.00
2019-01-03T01:47:05.861Z,0.00
2019-01-03T01:48:05.883Z,0.00
2019-01-03T01:49:05.905Z,0.00
2019-01-03T01:50:05.927Z,0.00
2019-01-03T01:51:05.948Z,0.00
2019-01-03T01:52:05.970Z,0.00
2019-01-03T01:53:05.992Z,0.00
2019-01-03T01:54:06.015Z,0.00
2019-01-03T01:55:06.035Z,0.00
2019-01-03T01:56:06.070Z,0.00
2019-01-03T01:57:06.079Z,0.00
2019-01-03T01:58:06.101Z,0.00
2019-01-03T01:59:06.123Z,0.00
2019-01-03T02:00:06.145Z,0.00
2019-01-03T02:01:06.166Z,0.00
2019-01-03T02:02:06.190Z,0.00
2019-01-03T02:03:06.209Z,0.00
2019-01-03T02:04:06.231Z,0.00
2019-01-03T02:05:06.253Z,0.00
2019-01-03T02:06:06.276Z,0.00
2019-01-03T02:07:06.300Z,0.00
2019-01-03T02:08:06.322Z,0.00
2019-01-03T02:09:06.341Z,0.00
2019-01-03T02:10:06.364Z,0.00
2019-01-03T02:11:06.383Z,0.00
2019-01-03T02:12:06.406Z,0.00
2019-01-03T02:13:06.427Z,0.00
2019-01-03T02:14:06.448Z,0.00
2019-01-03T02:15:06.471Z,0.00
2019-01-03T02:16:06.491Z,0.00
2019-01-03T02:17:06.514Z,0.00
2019-01-03T02:18:06.535Z,0.00
2019-01-03T02:19:06.556Z,0.00
2019-01-03T02:20:06.576Z,0.00
2019-01-03T02:21:06.600Z,0.00
2019-01-03T02:22:06.623Z,0.00
2019-01-03T02:23:06.644Z,0.00
2019-01-03T02:24:06.662Z,0.00
2019-01-03T02:25:06.687Z,0.00
2019-01-03T02:26:06.707Z,0.00
2019-01-03T02:27:06.727Z,0.00
2019-01-03T02:28:06.750Z,0.00
2019-01-03T02:29:06.771Z,0.00
2019-01-03T02:30:06.795Z,0.00
2019-01-03T02:31:06.818Z,0.00
2019-01-03T02:32:06.836Z,0.00
2019-01-03T02:33:06.858Z,0.00
2019-01-03T02:34:06.882Z,0.00
2019-01-03T02:35:06.899Z,0.00
2019-01-03T02:36:06.921Z,0.00
2019-01-03T02:37:06.945Z,0.00
2019-01-03T02:38:06.980Z,0.00
2019-01-03T02:39:06.986Z,0.00
2019-01-03T02:40:07.006Z,0.00
2019-01-03T02:41:07.028Z,0.00
2019-01-03T02:42:07.052Z,0.00
2019-01-03T02:43:07.072Z,0.00
2019-01-03T02:44:07.094Z,0.00
2019-01-03T02:45:07.114Z,0.00
2019-01-03T02:46:07.136Z,0.00
2019-01-03T02:47:07.155Z,0.00
2019-01-03T02:48:07.178Z,0.00
2019-01-03T02:49:07.199Z,0.00
2019-01-03T02:50:07.228Z,0.00
2019-01-03T02:51:07.248Z,0.00
2019-01-03T02:52:07.279Z,0.00
2019-01-03T02:53:07.285Z,0.00
2019-01-03T02:54:07.305Z,0.00
2019-01-03T02:55:07.326Z,0.00
2019-01-03T02:56:07.348Z,0.00
2019-01-03T02:57:07.368Z,0.00
2019-01-03T02:58:07.389Z,0.00
2019-01-03T02:59:07.410Z,0.00
2019-01-03T03:00:07.432Z,0.00
2019-01-03T03:01:07.455Z,0.00
2019-01-03T03:02:07.475Z,0.00
2019-01-03T03:03:07.495Z,0.00
2019-01-03T03:04:07.516Z,0.00
2019-01-03T03:05:07.537Z,0.00
2019-01-03T03:06:07.560Z,0.00
2019-01-03T03:07:07.580Z,0.00
2019-01-03T03:08:07.602Z,0.00
2019-01-03T03:09:07.623Z,0.00
2019-01-03T03:10:07.643Z,0.00
2019-01-03T03:11:07.666Z,0.00
2019-01-03T03:12:07.686Z,0.00
2019-01-03T03:13:07.706Z,0.00
2019-01-03T03:14:07.727Z,0.00
2019-01-03T03:15:07.748Z,0.00
2019-01-03T03:16:07.768Z,0.00
2019-01-03T03:17:07.792Z,0.00
2019-01-03T03:18:07.812Z,0.00
2019-01-03T03:19:07.834Z,0.00
2019-01-03T03:20:07.860Z,0.00
2019-01-03T03:21:07.927Z,0.00
2019-01-03T03:22:07.897Z,0.00
2019-01-03T03:23:07.918Z,0.00
2019-01-03T03:24:07.941Z,0.00
2019-01-03T03:25:07.961Z,0.00
2019-01-03T03:26:07.985Z,0.00
2019-01-03T03:27:08.003Z,0.00
2019-01-03T03:28:08.022Z,0.00
2019-01-03T03:29:08.053Z,0.00
2019-01-03T03:30:08.074Z,0.00
2019-01-03T03:31:08.086Z,0.00
2019-01-03T03:32:08.108Z,0.00
2019-01-03T03:33:08.143Z,0.00
2019-01-03T03:34:08.150Z,0.00
2019-01-03T03:35:08.171Z,0.00
2019-01-03T03:36:08.192Z,0.00
2019-01-03T03:37:08.214Z,0.00
2019-01-03T03:38:08.240Z,0.00
2019-01-03T03:39:08.255Z,0.00
2019-01-03T03:40:08.275Z,0.00
2019-01-03T03:41:08.297Z,0.00
2019-01-03T03:42:08.319Z,0.00
2019-01-03T03:43:08.344Z,0.00
2019-01-03T03:44:08.359Z,0.00
2019-01-03T03:45:08.382Z,0.00
2019-01-03T03:46:08.402Z,0.00
2019-01-03T03:47:08.422Z,0.00
2019-01-03T03:48:08.444Z,0.00
2019-01-03T03:49:08.465Z,0.00
2019-01-03T03:50:08.501Z,0.00
2019-01-03T03:51:08.507Z,0.00
2019-01-03T03:52:08.527Z,0.00
2019-01-03T03:53:08.548Z,0.00
2019-01-03T03:54:08.571Z,0.00
2019-01-03T03:55:08.591Z,0.00
2019-01-03T03:56:08.613Z,0.00
2019-01-03T03:57:08.632Z,0.00
2019-01-03T03:58:08.653Z,0.00
2019-01-03T03:59:08.675Z,0.00
2019-01-03T04:00:08.694Z,0.00
2019-01-03T04:01:08.715Z,0.00
2019-01-03T04:02:08.752Z,0.00
2019-01-03T04:03:08.756Z,0.00
2019-01-03T04:04:08.777Z,0.00
2019-01-03T04:05:08.800Z,0.00
2019-01-03T04:06:08.821Z,0.00
2019-01-03T04:07:08.840Z,0.00
2019-01-03T04:08:08.862Z,0.00
2019-01-03T04:09:08.884Z,0.00
2019-01-03T04:10:08.903Z,0.00
2019-01-03T04:11:08.924Z,0.00
2019-01-03T04:12:08.949Z,0.00
2019-01-03T04:13:08.966Z,0.00
2019-01-03T04:14:08.988Z,0.00
2019-01-03T04:15:09.008Z,0.00
2019-01-03T04:16:09.028Z,0.00
2019-01-03T04:17:09.049Z,0.00
2019-01-03T04:18:09.070Z,0.00
2019-01-03T04:19:09.093Z,0.00
2019-01-03T04:20:09.115Z,0.00
2019-01-03T04:21:09.135Z,0.00
2019-01-03T04:22:09.154Z,0.00
2019-01-03T04:23:09.183Z,0.00
2019-01-03T04:24:09.195Z,0.00
2019-01-03T04:25:09.218Z,0.00
2019-01-03T04:26:09.241Z,0.00
2019-01-03T04:27:09.256Z,0.00
2019-01-03T04:28:09.820Z,0.00
2019-01-03T04:29:09.298Z,0.00
2019-01-03T04:30:09.321Z,0.00
2019-01-03T04:31:09.340Z,0.00
2019-01-03T04:32:09.362Z,0.00
2019-01-03T04:33:09.384Z,0.00
2019-01-03T04:34:09.403Z,0.00
2019-01-03T04:35:09.425Z,0.00
2019-01-03T04:36:09.444Z,0.00
2019-01-03T04:37:09.514Z,0.00
2019-01-03T04:38:09.487Z,0.00
2019-01-03T04:39:09.507Z,0.00
2019-01-03T04:40:09.529Z,0.00
2019-01-03T04:41:09.547Z,0.00
2019-01-03T04:42:09.568Z,0.00
2019-01-03T04:43:09.588Z,0.00
2019-01-03T04:44:09.610Z,0.00
2019-01-03T04:45:09.632Z,0.00
2019-01-03T04:46:09.656Z,0.00
2019-01-03T04:47:09.673Z,0.00
2019-01-03T04:48:09.694Z,0.00
2019-01-03T04:49:09.714Z,0.00
2019-01-03T04:50:09.734Z,0.00
2019-01-03T04:51:09.756Z,0.00
2019-01-03T04:52:09.777Z,0.00
2019-01-03T04:53:09.795Z,0.00
2019-01-03T04:54:09.816Z,0.00
2019-01-03T04:55:09.838Z,0.00
2019-01-03T04:56:09.858Z,0.00
2019-01-03T04:57:09.882Z,0.00
2019-01-03T04:58:09.900Z,0.00
2019-01-03T04:59:09.975Z,0.00
2019-01-03T05:00:09.941Z,0.00
2019-01-03T05:01:09.961Z,0.00
2019-01-03T05:02:09.986Z,0.00
2019-01-03T05:03:10.003Z,0.00
2019-01-03T05:04:10.027Z,0.00
2019-01-03T05:05:10.046Z,0.00
2019-01-03T05:06:10.065Z,0.00
2019-01-03T05:07:10.086Z,0.00
2019-01-03T05:08:10.106Z,0.00
2019-01-03T05:09:10.128Z,0.00
2019-01-03T05:10:10.153Z,0.00
2019-01-03T05:11:10.166Z,0.00
2019-01-03T05:12:10.190Z,0.00
2019-01-03T05:13:10.224Z,0.00
2019-01-03T05:14:10.289Z,0.00
2019-01-03T05:15:10.251Z,0.00
2019-01-03T05:16:10.275Z,0.00
2019-01-03T05:17:10.293Z,0.00
2019-01-03T05:18:10.314Z,0.00
2019-01-03T05:19:10.338Z,0.00
2019-01-03T05:20:10.355Z,0.00
2019-01-03T05:21:10.377Z,0.00
2019-01-03T05:22:10.396Z,0.00
2019-01-03T05:23:10.416Z,0.00
2019-01-03T05:24:10.437Z,0.00
2019-01-03T05:25:10.457Z,0.00
2019-01-03T05:26:10.480Z,0.00
2019-01-03T05:27:10.500Z,0.00
2019-01-03T05:28:10.524Z,0.00
2019-01-03T05:29:10.541Z,0.00
2019-01-03T05:30:10.567Z,0.00
2019-01-03T05:31:10.582Z,0.00
2019-01-03T05:32:10.603Z,0.00
2019-01-03T05:33:10.624Z,0.00
2019-01-03T05:34:10.645Z,0.00
2019-01-03T05:35:10.664Z,0.00
2019-01-03T05:36:10.686Z,0.00
2019-01-03T05:37:10.707Z,0.00
2019-01-03T05:38:10.727Z,0.00
2019-01-03T05:39:10.753Z,0.00
2019-01-03T05:40:10.768Z,0.00
2019-01-03T05:41:10.794Z,0.00
2019-01-03T05:42:10.811Z,0.00
2019-01-03T05:43:10.831Z,0.00
2019-01-03T05:44:10.853Z,0.00
2019-01-03T05:45:10.872Z,0.00
2019-01-03T05:46:10.891Z,0.00
2019-01-03T05:47:10.911Z,0.00
2019-01-03T05:48:10.933Z,0.00
2019-01-03T05:49:10.954Z,0.00
2019-01-03T05:50:10.975Z,0.00
2019-01-03T05:51:10.993Z,0.00
2019-01-03T05:52:11.017Z,0.00
2019-01-03T05:53:11.035Z,0.00
2019-01-03T05:54:11.055Z,0.00
2019-01-03T05:55:11.075Z,0.00
2019-01-03T05:56:11.098Z,0.00
2019-01-03T05:57:11.117Z,0.00
2019-01-03T05:58:11.138Z,0.00
2019-01-03T05:59:11.159Z,0.00
2019-01-03T06:00:11.179Z,0.00
2019-01-03T06:01:11.200Z,0.00
2019-01-03T06:02:11.221Z,0.00
2019-01-03T06:03:11.244Z,0.00
2019-01-03T06:04:11.266Z,0.00
2019-01-03T06:05:11.285Z,0.00
2019-01-03T06:06:11.354Z,0.00
2019-01-03T06:07:11.322Z,0.00
2019-01-03T06:08:11.344Z,0.00
2019-01-03T06:09:11.364Z,0.00
2019-01-03T06:10:11.385Z,0.00
2019-01-03T06:11:11.411Z,0.00
2019-01-03T06:12:11.428Z,0.00
2019-01-03T06:13:11.448Z,0.00
2019-01-03T06:14:11.473Z,0.00
2019-01-03T06:15:11.487Z,0.00
2019-01-03T06:16:11.507Z,0.00
2019-01-03T06:17:11.530Z,0.00
2019-01-03T06:18:11.551Z,0.00
2019-01-03T06:19:11.598Z,0.00
2019-01-03T06:20:11.590Z,0.00
2019-01-03T06:21:11.611Z,0.00
2019-01-03T06:22:11.631Z,0.00
2019-01-03T06:23:11.652Z,0.00
2019-01-03T06:24:11.674Z,0.00
2019-01-03T06:25:11.697Z,0.00
2019-01-03T06:26:11.713Z,0.00
2019-01-03T06:27:11.733Z,0.00
2019-01-03T06:28:11.754Z,0.00
2019-01-03T06:29:11.774Z,0.00
2019-01-03T06:30:11.797Z,0.00
2019-01-03T06:31:11.815Z,0.00
2019-01-03T06:32:11.837Z,0.00
2019-01-03T06:33:11.858Z,0.00
2019-01-03T06:34:11.881Z,0.00
2019-01-03T06:35:11.898Z,0.00
2019-01-03T06:36:11.920Z,0.00
2019-01-03T06:37:11.939Z,0.00
2019-01-03T06:38:11.961Z,0.00
2019-01-03T06:39:11.978Z,0.00
2019-01-03T06:40:12.000Z,0.00
2019-01-03T06:41:12.021Z,0.00
2019-01-03T06:42:12.042Z,0.00
2019-01-03T06:43:12.061Z,4.00
2019-01-03T06:44:12.081Z,4.00
2019-01-03T06:45:12.103Z,0.00
2019-01-03T06:46:12.122Z,4.00
2019-01-03T06:47:12.142Z,0.00
2019-01-03T06:48:12.164Z,4.00
2019-01-03T06:49:12.184Z,4.00
2019-01-03T06:50:12.205Z,8.00
2019-01-03T06:51:12.223Z,8.00
2019-01-03T06:52:12.244Z,8.00
2019-01-03T06:53:12.266Z,8.00
2019-01-03T06:54:12.286Z,12.00
2019-01-03T06:55:12.305Z,12.00
2019-01-03T06:56:12.326Z,12.00
2019-01-03T06:57:12.349Z,16.00
2019-01-03T06:58:12.418Z,20.00
2019-01-03T06:59:12.387Z,24.00
2019-01-03T07:00:12.411Z,28.00
2019-01-03T07:01:12.430Z,32.00
2019-01-03T07:02:12.450Z,40.00
2019-01-03T07:03:12.468Z,48.00
2019-01-03T07:04:12.489Z,52.00
2019-01-03T07:05:12.512Z,60.00
2019-01-03T07:06:12.533Z,68.00
2019-01-03T07:07:12.553Z,80.00
2019-01-03T07:08:12.576Z,92.00
2019-01-03T07:09:12.591Z,104.00
2019-01-03T07:10:12.614Z,120.00
2019-01-03T07:11:12.631Z,128.00
2019-01-03T07:12:12.652Z,148.00
2019-01-03T07:13:12.673Z,164.00
2019-01-03T07:14:12.692Z,180.00
2019-01-03T07:15:12.712Z,200.00
2019-01-03T07:16:12.734Z,220.00
2019-01-03T07:17:12.753Z,240.00
2019-01-03T07:18:12.776Z,264.00
2019-01-03T07:19:12.794Z,292.00
2019-01-03T07:20:12.815Z,316.00
2019-01-03T07:21:12.836Z,348.00
2019-01-03T07:22:12.857Z,372.00
2019-01-03T07:23:12.876Z,408.00
2019-01-03T07:24:12.897Z,436.00
2019-01-03T07:25:12.916Z,472.00
2019-01-03T07:26:12.937Z,504.00
2019-01-03T07:27:12.956Z,536.00
2019-01-03T07:28:12.978Z,572.00
2019-01-03T07:29:12.997Z,612.00
2019-01-03T07:30:13.017Z,652.00
2019-01-03T07:31:13.039Z,684.00
2019-01-03T07:32:13.062Z,724.00
2019-01-03T07:33:13.080Z,768.00
2019-01-03T07:34:13.101Z,812.00
2019-01-03T07:35:13.119Z,856.00
2019-01-03T07:36:13.143Z,896.00
2019-01-03T07:37:13.163Z,944.00
2019-01-03T07:38:13.181Z,984.00
2019-01-03T07:39:13.201Z,1032.00
2019-01-03T07:40:13.224Z,1084.00
2019-01-03T07:41:13.243Z,1136.00
2019-01-03T07:42:14.060Z,1188.00
2019-01-03T07:43:13.282Z,1240.00
2019-01-03T07:44:13.353Z,1296.00
2019-01-03T07:45:13.322Z,1380.00
2019-01-03T07:46:13.344Z,1464.00
2019-01-03T07:47:13.365Z,1476.00
2019-01-03T07:48:13.389Z,1504.00
2019-01-03T07:49:13.407Z,1592.00
2019-01-03T07:50:13.431Z,1672.00
2019-01-03T07:51:13.446Z,1708.00
2019-01-03T07:52:13.467Z,1592.00
2019-01-03T07:53:13.487Z,1596.00
2019-01-03T07:54:13.510Z,1648.00
2019-01-03T07:55:13.528Z,1684.00
2019-01-03T07:56:13.550Z,1704.00
2019-01-03T07:57:13.570Z,1748.00
2019-01-03T07:58:13.591Z,1784.00
2019-01-03T07:59:13.614Z,1812.00
2019-01-03T08:00:13.631Z,1856.00
2019-01-03T08:01:13.653Z,1908.00
2019-01-03T08:02:13.673Z,1964.00
2019-01-03T08:03:13.692Z,2024.00
2019-01-03T08:04:13.713Z,2084.00
2019-01-03T08:05:13.735Z,2156.00
2019-01-03T08:06:13.755Z,2228.00
2019-01-03T08:07:14.701Z,2256.00
2019-01-03T08:08:13.796Z,2292.00
2019-01-03T08:09:13.817Z,2332.00
2019-01-03T08:10:13.838Z,2348.00
2019-01-03T08:11:13.857Z,2400.00
2019-01-03T08:12:13.928Z,2444.00
2019-01-03T08:13:13.902Z,2504.00
2019-01-03T08:14:13.919Z,2588.00
2019-01-03T08:15:13.940Z,2644.00
2019-01-03T08:16:13.961Z,2760.00
2019-01-03T08:17:13.982Z,2912.00
2019-01-03T08:18:14.003Z,3540.00
2019-01-03T08:19:14.022Z,6476.00
2019-01-03T08:20:14.043Z,8496.00
2019-01-03T08:21:14.065Z,9040.00
2019-01-03T08:22:14.090Z,9384.00
2019-01-03T08:23:14.108Z,9644.00
2019-01-03T08:24:14.127Z,9940.00
2019-01-03T08:25:14.147Z,10228.00
2019-01-03T08:26:14.170Z,10484.00
2019-01-03T08:27:14.191Z,10096.00
2019-01-03T08:28:14.214Z,8828.00
2019-01-03T08:29:14.234Z,11312.00
2019-01-03T08:30:14.257Z,11632.00
2019-01-03T08:31:14.279Z,11900.00
2019-01-03T08:32:14.302Z,12240.00
2019-01-03T08:33:14.376Z,12328.00
2019-01-03T08:34:14.348Z,10624.00
2019-01-03T08:35:14.369Z,5832.00
2019-01-03T08:36:14.393Z,4760.00
2019-01-03T08:37:14.415Z,4144.00
2019-01-03T08:38:14.439Z,3880.00
2019-01-03T08:39:14.460Z,3884.00
2019-01-03T08:40:14.485Z,3956.00
2019-01-03T08:41:14.507Z,4036.00
2019-01-03T08:42:14.531Z,4096.00
2019-01-03T08:43:14.553Z,4260.00
2019-01-03T08:44:14.577Z,4520.00
2019-01-03T08:45:14.598Z,4840.00
2019-01-03T08:46:14.622Z,5104.00
2019-01-03T08:47:14.645Z,5204.00
2019-01-03T08:48:14.666Z,5144.00
2019-01-03T08:49:14.690Z,6772.00
2019-01-03T08:50:14.714Z,5928.00
2019-01-03T08:51:14.734Z,7192.00
2019-01-03T08:52:14.757Z,6984.00
2019-01-03T08:53:14.783Z,12688.00
2019-01-03T08:54:14.803Z,8452.00
2019-01-03T08:55:14.824Z,7348.00
2019-01-03T08:56:14.849Z,5708.00
2019-01-03T08:57:14.870Z,5988.00
2019-01-03T08:58:14.893Z,5448.00
2019-01-03T08:59:14.916Z,5532.00
2019-01-03T09:00:14.938Z,6824.00
2019-01-03T09:01:14.962Z,7380.00
2019-01-03T09:02:14.986Z,7208.00
2019-01-03T09:03:15.006Z,7152.00
2019-01-03T09:04:15.029Z,8096.00
2019-01-03T09:05:15.066Z,13572.00
2019-01-03T09:06:15.075Z,9828.00
2019-01-03T09:07:15.098Z,8884.00
2019-01-03T09:08:15.120Z,9068.00
2019-01-03T09:09:15.143Z,10380.00
2019-01-03T09:10:15.165Z,11908.00
2019-01-03T09:11:15.188Z,16672.00
2019-01-03T09:12:15.211Z,14764.00
2019-01-03T09:13:15.236Z,11556.00
2019-01-03T09:14:15.258Z,27744.00
2019-01-03T09:15:15.284Z,31968.00
2019-01-03T09:16:15.303Z,31904.00
2019-01-03T09:17:15.328Z,31648.00
2019-01-03T09:18:15.353Z,30752.00
2019-01-03T09:19:15.377Z,31840.00
2019-01-03T09:20:15.402Z,18624.00
2019-01-03T09:21:15.427Z,30496.00
2019-01-03T09:22:15.450Z,29280.00
2019-01-03T09:23:15.475Z,30080.00
2019-01-03T09:24:15.501Z,26976.00
2019-01-03T09:25:15.536Z,15328.00
2019-01-03T09:26:15.553Z,7508.00
2019-01-03T09:27:15.578Z,6808.00
2019-01-03T09:28:15.607Z,6560.00
2019-01-03T09:29:15.631Z,6476.00
2019-01-03T09:30:15.658Z,6440.00
2019-01-03T09:31:15.685Z,6356.00
2019-01-03T09:32:15.710Z,6276.00
2019-01-03T09:33:15.735Z,6180.00
2019-01-03T09:34:15.763Z,5984.00
2019-01-03T09:35:15.785Z,5768.00
2019-01-03T09:36:15.814Z,5524.00
2019-01-03T09:37:15.838Z,5340.00
2019-01-03T09:38:15.865Z,5268.00
2019-01-03T09:39:15.890Z,5136.00
2019-01-03T09:40:15.915Z,4992.00
2019-01-03T09:41:15.940Z,4824.00
2019-01-03T09:42:15.966Z,4676.00
2019-01-03T09:43:15.990Z,4624.00
2019-01-03T09:44:16.017Z,4540.00
2019-01-03T09:45:16.043Z,4504.00
2019-01-03T09:46:16.066Z,4460.00
2019-01-03T09:47:16.090Z,4452.00
2019-01-03T09:48:16.117Z,4420.00
2019-01-03T09:49:16.140Z,4380.00
2019-01-03T09:50:16.166Z,4400.00
2019-01-03T09:51:16.189Z,4448.00
2019-01-03T09:52:16.213Z,4472.00
2019-01-03T09:53:16.236Z,4440.00
2019-01-03T09:54:16.263Z,4376.00
2019-01-03T09:55:16.287Z,4336.00
2019-01-03T09:56:16.312Z,4368.00
2019-01-03T09:57:16.335Z,4432.00
2019-01-03T09:58:16.359Z,4504.00
2019-01-03T09:59:16.382Z,4556.00
2019-01-03T10:00:16.407Z,4560.00
2019-01-03T10:01:16.431Z,4572.00
2019-01-03T10:02:16.506Z,4644.00
2019-01-03T10:03:16.478Z,4732.00
2019-01-03T10:04:16.503Z,4812.00
2019-01-03T10:05:16.527Z,4916.00
2019-01-03T10:06:16.551Z,5000.00
2019-01-03T10:07:16.581Z,5080.00
2019-01-03T10:08:19.629Z,5104.00
2019-01-03T10:09:16.622Z,5088.00
2019-01-03T10:10:16.645Z,5084.00
2019-01-03T10:11:16.668Z,5116.00
2019-01-03T10:12:16.693Z,5144.00
2019-01-03T10:13:16.717Z,5104.00
2019-01-03T10:14:16.740Z,5140.00
2019-01-03T10:15:16.763Z,5236.00
2019-01-03T10:16:16.787Z,5244.00
2019-01-03T10:17:16.812Z,5248.00
2019-01-03T10:18:16.835Z,5432.00
2019-01-03T10:19:16.858Z,5592.00
2019-01-03T10:20:16.882Z,5732.00
2019-01-03T10:21:16.905Z,5836.00
2019-01-03T10:22:16.929Z,5916.00
2019-01-03T10:23:16.952Z,5972.00
2019-01-03T10:24:16.981Z,6064.00
2019-01-03T10:25:16.999Z,6084.00
2019-01-03T10:26:17.027Z,6224.00
2019-01-03T10:27:17.048Z,6344.00
2019-01-03T10:28:17.070Z,6576.00
2019-01-03T10:29:17.097Z,6764.00
2019-01-03T10:30:17.118Z,6692.00
2019-01-03T10:31:17.142Z,6676.00
2019-01-03T10:32:17.166Z,6512.00
2019-01-03T10:33:17.192Z,6384.00
2019-01-03T10:34:17.214Z,6376.00
2019-01-03T10:35:17.238Z,6368.00
2019-01-03T10:36:17.269Z,6276.00
2019-01-03T10:37:17.286Z,6164.00
2019-01-03T10:38:20.990Z,6044.00
2019-01-03T10:39:17.335Z,5980.00
2019-01-03T10:40:17.357Z,5868.00
2019-01-03T10:41:17.381Z,6004.00
2019-01-03T10:42:17.548Z,6428.00
2019-01-03T10:43:17.430Z,6644.00
2019-01-03T10:44:17.453Z,6620.00
2019-01-03T10:45:17.476Z,6576.00
2019-01-03T10:46:17.502Z,6472.00
2019-01-03T10:47:17.524Z,6324.00
2019-01-03T10:48:17.549Z,6064.00
2019-01-03T10:49:17.583Z,5868.00
2019-01-03T10:50:17.597Z,5748.00
2019-01-03T10:51:17.620Z,5744.00
2019-01-03T10:52:17.648Z,5880.00
2019-01-03T10:53:17.669Z,5948.00
2019-01-03T10:54:17.693Z,5948.00
2019-01-03T10:55:17.716Z,5924.00
2019-01-03T10:56:17.741Z,5964.00
2019-01-03T10:57:17.765Z,5948.00
2019-01-03T10:58:17.790Z,5812.00
2019-01-03T10:59:17.814Z,5700.00
2019-01-03T11:00:17.837Z,5604.00
2019-01-03T11:01:17.862Z,5476.00
2019-01-03T11:02:17.888Z,5580.00
2019-01-03T11:03:17.909Z,5792.00
2019-01-03T11:04:17.932Z,5892.00
2019-01-03T11:05:17.957Z,5908.00
2019-01-03T11:06:17.981Z,5800.00
2019-01-03T11:07:18.006Z,5644.00
2019-01-03T11:08:18.028Z,5568.00
2019-01-03T11:09:18.053Z,5564.00
2019-01-03T11:10:18.077Z,5616.00
2019-01-03T11:11:18.101Z,5676.00
2019-01-03T11:12:18.126Z,5548.00
2019-01-03T11:13:18.150Z,5480.00
2019-01-03T11:14:18.173Z,5416.00
2019-01-03T11:15:18.196Z,5352.00
2019-01-03T11:16:18.221Z,5356.00
2019-01-03T11:17:18.245Z,5480.00
2019-01-03T11:18:18.270Z,5664.00
2019-01-03T11:19:18.294Z,5800.00
2019-01-03T11:20:18.316Z,5952.00
2019-01-03T11:21:18.341Z,5984.00
2019-01-03T11:22:18.366Z,6032.00
2019-01-03T11:23:18.390Z,5980.00
2019-01-03T11:24:18.416Z,5856.00
2019-01-03T11:25:18.438Z,5640.00
2019-01-03T11:26:18.463Z,5492.00
2019-01-03T11:27:18.486Z,5376.00
2019-01-03T11:28:18.510Z,5268.00
2019-01-03T11:29:18.535Z,5088.00
2019-01-03T11:30:18.560Z,4856.00
2019-01-03T11:31:18.583Z,4704.00
2019-01-03T11:32:18.608Z,4560.00
2019-01-03T11:33:18.632Z,4420.00
2019-01-03T11:34:18.656Z,4356.00
2019-01-03T11:35:18.680Z,4256.00
2019-01-03T11:36:18.705Z,4252.00
2019-01-03T11:37:18.728Z,4348.00
2019-01-03T11:38:18.754Z,4456.00
2019-01-03T11:39:18.777Z,4612.00
2019-01-03T11:40:18.803Z,4792.00
2019-01-03T11:41:18.824Z,5004.00
2019-01-03T11:42:18.850Z,5164.00
2019-01-03T11:43:18.871Z,5380.00
2019-01-03T11:44:18.900Z,5660.00
2019-01-03T11:45:18.921Z,5792.00
2019-01-03T11:46:18.946Z,5860.00
2019-01-03T11:47:18.969Z,5768.00
2019-01-03T11:48:18.992Z,5556.00
2019-01-03T11:49:19.017Z,5412.00
2019-01-03T11:50:19.049Z,5200.00
2019-01-03T11:51:19.064Z,5024.00
2019-01-03T11:52:19.090Z,4988.00
2019-01-03T11:53:19.114Z,4872.00
2019-01-03T11:54:19.137Z,4736.00
2019-01-03T11:55:19.161Z,4600.00
2019-01-03T11:56:19.185Z,4520.00
2019-01-03T11:57:19.210Z,4496.00
2019-01-03T11:58:19.237Z,4524.00
2019-01-03T11:59:19.260Z,4588.00
2019-01-03T12:00:19.281Z,4732.00
2019-01-03T12:01:19.308Z,4832.00
2019-01-03T12:02:25.442Z,4944.00
2019-01-03T12:03:19.356Z,5060.00
2019-01-03T12:04:19.380Z,5092.00
2019-01-03T12:05:19.404Z,5132.00
2019-01-03T12:06:19.428Z,5100.00
2019-01-03T12:07:19.454Z,5020.00
2019-01-03T12:08:19.476Z,4912.00
2019-01-03T12:09:19.501Z,4756.00
2019-01-03T12:10:19.527Z,4596.00
2019-01-03T12:11:19.551Z,4540.00
2019-01-03T12:12:19.575Z,4620.00
2019-01-03T12:13:19.598Z,4780.00
2019-01-03T12:14:19.624Z,4952.00
2019-01-03T12:15:19.647Z,5092.00
2019-01-03T12:16:19.672Z,5220.00
2019-01-03T12:17:19.697Z,5452.00
2019-01-03T12:18:19.721Z,5740.00
2019-01-03T12:19:19.745Z,5968.00
2019-01-03T12:20:19.770Z,6232.00
2019-01-03T12:21:19.796Z,6436.00
2019-01-03T12:22:19.818Z,6448.00
2019-01-03T12:23:19.843Z,6416.00
2019-01-03T12:24:19.868Z,6396.00
2019-01-03T12:25:19.894Z,6304.00
2019-01-03T12:26:19.919Z,6044.00
2019-01-03T12:27:19.942Z,5860.00
2019-01-03T12:28:19.965Z,5764.00
2019-01-03T12:29:19.991Z,5640.00
2019-01-03T12:30:20.015Z,5664.00
2019-01-03T12:31:20.039Z,5860.00
2019-01-03T12:32:20.065Z,5868.00
2019-01-03T12:33:20.089Z,5768.00
2019-01-03T12:34:20.113Z,5624.00
2019-01-03T12:35:20.145Z,5460.00
2019-01-03T12:36:20.167Z,5284.00
2019-01-03T12:37:20.188Z,5068.00
2019-01-03T12:38:20.213Z,4888.00
2019-01-03T12:39:20.237Z,4780.00
2019-01-03T12:40:20.263Z,4672.00
2019-01-03T12:41:20.285Z,4488.00
2019-01-03T12:42:20.311Z,4360.00
2019-01-03T12:43:20.336Z,4324.00
2019-01-03T12:44:20.362Z,4296.00